createdAt,value
2022-10-30T00:00:42.491Z,6.80
2022-10-30T00:03:14.184Z,7.60
2022-10-30T00:05:43.125Z,6.38
2022-10-30T00:08:11.637Z,6.32
2022-10-30T00:10:39.586Z,6.28
2022-10-30T00:13:07.458Z,6.60
2022-10-30T00:15:35.733Z,6.70
2022-10-30T00:18:03.452Z,5.85
2022-10-30T00:20:31.313Z,5.82
2022-10-30T00:22:59.615Z,5.38
2022-10-30T00:25:27.608Z,5.75
2022-10-30T00:27:55.264Z,6.43
2022-10-30T00:30:22.929Z,6.63
2022-10-30T00:32:50.770Z,6.45
2022-10-30T00:35:18.407Z,6.20
2022-10-30T00:37:46.035Z,7.32
2022-10-30T00:40:17.075Z,7.65
2022-10-30T00:45:16.385Z,7.72
2022-10-30T00:47:48.152Z,8.65
2022-10-30T00:50:30.781Z,7.28
2022-10-30T00:53:02.506Z,7.15
2022-10-30T00:55:32.567Z,7.30
2022-10-30T00:58:01.735Z,7.67
2022-10-30T01:00:30.384Z,7.78
2022-10-30T01:02:59.279Z,6.53
2022-10-30T01:05:29.503Z,6.53
2022-10-30T01:07:57.429Z,7.53
2022-10-30T01:10:25.856Z,7.15
2022-10-30T01:12:54.442Z,6.75
2022-10-30T01:15:27.728Z,6.50
2022-10-30T01:17:55.929Z,6.55
2022-10-30T01:20:52.275Z,7.07
2022-10-30T01:23:35.183Z,6.43
2022-10-30T01:26:08.902Z,7.22
2022-10-30T01:28:45.199Z,6.80
2022-10-30T01:31:31.561Z,6.13
2022-10-30T01:34:18.887Z,6.28
2022-10-30T01:36:49.580Z,6.90
2022-10-30T01:39:20.454Z,6.57
2022-10-30T01:41:48.196Z,6.22
2022-10-30T01:44:20.982Z,6.57
2022-10-30T01:46:48.628Z,7.97
2022-10-30T01:52:00.563Z,6.13
2022-10-30T01:54:38.024Z,6.97
2022-10-30T01:57:13.223Z,6.50
2022-10-30T02:00:00.663Z,6.28
2022-10-30T02:02:28.823Z,6.28
2022-10-30T02:04:56.507Z,7.25
2022-10-30T02:07:24.486Z,6.95
2022-10-30T02:09:53.214Z,7.43
2022-10-30T02:12:21.550Z,7.55
2022-10-30T02:14:51.737Z,6.07
2022-10-30T02:17:20.508Z,6.20
2022-10-30T02:19:50.581Z,6.55
2022-10-30T02:22:19.384Z,5.30
2022-10-30T02:24:48.524Z,5.60
2022-10-30T02:27:16.741Z,7.15
2022-10-30T02:29:44.340Z,6.45
2022-10-30T02:32:12.563Z,6.60
2022-10-30T02:34:40.711Z,6.05
2022-10-30T02:37:08.977Z,4.97
2022-10-30T02:39:36.668Z,6.00
2022-10-30T02:42:05.948Z,6.55
2022-10-30T02:44:33.764Z,6.53
2022-10-30T02:47:01.702Z,5.90
2022-10-30T02:49:29.479Z,7.03
2022-10-30T02:51:57.175Z,6.30
2022-10-30T02:54:25.680Z,7.18
2022-10-30T02:56:54.405Z,7.30
2022-10-30T02:59:22.623Z,6.80
2022-10-30T03:01:51.448Z,6.13
2022-10-30T03:04:20.191Z,7.22
2022-10-30T03:06:47.882Z,6.70
2022-10-30T03:09:15.779Z,7.60
2022-10-30T03:11:44.500Z,6.93
2022-10-30T03:14:12.282Z,6.80
2022-10-30T03:16:39.958Z,6.72
2022-10-30T03:19:07.699Z,7.45
2022-10-30T03:21:35.294Z,6.68
2022-10-30T03:24:03.004Z,7.25
2022-10-30T03:26:30.971Z,7.13
2022-10-30T03:29:05.316Z,5.85
2022-10-30T03:31:33.761Z,6.03
2022-10-30T03:34:20.205Z,5.68
2022-10-30T03:36:47.935Z,5.50
2022-10-30T03:39:15.496Z,6.70
2022-10-30T03:41:45.251Z,5.18
2022-10-30T03:44:13.509Z,6.03
2022-10-30T03:46:41.160Z,6.25
2022-10-30T03:49:22.948Z,5.82
2022-10-30T03:51:50.682Z,5.60
2022-10-30T03:54:18.602Z,6.25
2022-10-30T03:56:46.484Z,7.13
2022-10-30T03:59:17.188Z,6.53
2022-10-30T04:01:55.324Z,5.78
2022-10-30T04:04:23.097Z,6.05
2022-10-30T04:06:51.180Z,8.38
2022-10-30T04:09:18.910Z,6.72
2022-10-30T04:11:46.881Z,7.05
2022-10-30T04:14:15.718Z,6.47
2022-10-30T04:16:43.678Z,7.63
2022-10-30T04:19:11.362Z,6.80
2022-10-30T04:21:39.143Z,6.93
2022-10-30T04:24:06.904Z,7.75
2022-10-30T04:26:35.832Z,6.05
2022-10-30T04:29:03.536Z,6.18
2022-10-30T04:31:32.178Z,5.88
2022-10-30T04:33:59.836Z,6.20
2022-10-30T04:36:33.867Z,6.60
2022-10-30T04:39:02.721Z,5.38
2022-10-30T04:41:31.311Z,6.65
2022-10-30T04:44:07.389Z,5.68
2022-10-30T04:46:35.026Z,5.82
2022-10-30T04:49:09.647Z,5.28
2022-10-30T04:51:37.303Z,5.65
2022-10-30T04:54:06.811Z,6.13
2022-10-30T04:56:35.937Z,5.50
2022-10-30T04:59:04.701Z,5.43
2022-10-30T05:01:32.791Z,5.25
2022-10-30T05:04:03.004Z,7.15
2022-10-30T05:06:32.503Z,5.43
2022-10-30T05:09:00.452Z,6.57
2022-10-30T05:11:37.358Z,5.85
2022-10-30T05:14:05.285Z,5.43
2022-10-30T05:16:32.920Z,5.80
2022-10-30T05:19:03.131Z,5.73
2022-10-30T05:21:33.752Z,6.03
2022-10-30T05:24:01.483Z,6.25
2022-10-30T05:26:35.648Z,6.50
2022-10-30T05:29:03.695Z,5.07
2022-10-30T05:31:32.104Z,5.07
2022-10-30T05:34:18.504Z,5.00
2022-10-30T05:36:49.419Z,5.20
2022-10-30T05:39:18.076Z,5.38
2022-10-30T05:41:49.340Z,5.68
2022-10-30T05:44:29.158Z,4.97
2022-10-30T05:47:07.008Z,4.47
2022-10-30T05:49:35.988Z,5.88
2022-10-30T05:54:34.994Z,5.35
2022-10-30T05:57:14.962Z,5.57
2022-10-30T05:59:42.961Z,6.03
2022-10-30T06:02:11.106Z,7.00
2022-10-30T06:04:38.926Z,6.78
2022-10-30T06:07:12.032Z,7.43
2022-10-30T06:09:40.215Z,7.57
2022-10-30T06:12:26.314Z,8.43
2022-10-30T06:15:04.551Z,8.30
2022-10-30T06:17:32.277Z,9.23
2022-10-30T06:20:17.298Z,7.80
2022-10-30T06:23:05.111Z,7.50
2022-10-30T06:25:48.760Z,7.65
2022-10-30T06:28:36.792Z,7.20
2022-10-30T06:31:05.000Z,7.95
2022-10-30T06:33:33.080Z,7.97
2022-10-30T06:36:01.268Z,7.22
2022-10-30T06:38:29.337Z,6.38
2022-10-30T06:40:57.158Z,6.68
2022-10-30T06:43:48.354Z,6.97
2022-10-30T06:46:20.654Z,8.07
2022-10-30T06:48:48.283Z,6.13
2022-10-30T06:51:17.713Z,6.25
2022-10-30T06:53:46.847Z,6.90
2022-10-30T06:56:52.458Z,7.55
2022-10-30T06:59:38.637Z,5.57
2022-10-30T07:02:29.135Z,7.70
2022-10-30T07:05:00.793Z,5.30
2022-10-30T07:07:28.705Z,7.00
2022-10-30T07:09:56.401Z,5.78
2022-10-30T07:12:38.039Z,6.82
2022-10-30T07:15:17.343Z,6.35
2022-10-30T07:18:03.203Z,6.63
2022-10-30T07:20:35.100Z,5.75
2022-10-30T07:23:03.353Z,7.22
2022-10-30T07:25:31.342Z,5.50
2022-10-30T07:28:11.119Z,6.50
2022-10-30T07:30:54.210Z,5.97
2022-10-30T07:33:41.637Z,5.43
2022-10-30T07:38:54.113Z,5.88
2022-10-30T07:41:50.836Z,6.55
2022-10-30T07:44:37.243Z,4.50
2022-10-30T07:47:44.207Z,4.97
2022-10-30T07:50:23.611Z,5.65
2022-10-30T07:52:51.619Z,4.80
2022-10-30T07:58:18.683Z,4.88
2022-10-30T08:04:13.535Z,5.18
2022-10-30T08:06:41.563Z,5.00
2022-10-30T08:09:09.547Z,4.40
2022-10-30T08:17:17.662Z,5.20
2022-10-30T08:19:47.582Z,5.60
2022-10-30T08:22:15.330Z,6.15
2022-10-30T08:24:55.895Z,5.53
2022-10-30T08:30:06.723Z,5.32
2022-10-30T08:38:29.340Z,5.47
2022-10-30T08:41:11.510Z,6.45
2022-10-30T08:43:45.727Z,4.45
2022-10-30T08:48:56.203Z,4.45
2022-10-30T08:57:31.514Z,4.85
2022-10-30T09:00:01.970Z,4.78
2022-10-30T09:02:53.216Z,4.97
2022-10-30T09:05:42.662Z,4.60
2022-10-30T09:08:31.304Z,5.88
2022-10-30T09:11:19.319Z,5.15
2022-10-30T09:13:47.130Z,5.45
2022-10-30T09:16:15.025Z,4.93
2022-10-30T09:18:42.952Z,5.18
2022-10-30T09:21:13.166Z,4.95
2022-10-30T09:23:45.561Z,4.47
2022-10-30T09:26:39.393Z,4.38
2022-10-30T09:29:30.312Z,4.57
2022-10-30T09:32:10.013Z,5.03
2022-10-30T09:35:01.208Z,5.57
2022-10-30T09:37:37.167Z,5.57
2022-10-30T09:40:08.352Z,4.28
2022-10-30T09:42:37.632Z,4.82
2022-10-30T09:45:29.343Z,4.13
2022-10-30T09:48:16.815Z,4.93
2022-10-30T09:51:14.864Z,4.97
2022-10-30T09:53:55.948Z,4.88
2022-10-30T09:56:32.560Z,6.32
2022-10-30T09:59:15.231Z,4.32
2022-10-30T10:01:48.676Z,4.10
2022-10-30T10:04:22.274Z,4.25
2022-10-30T10:07:34.015Z,4.47
2022-10-30T10:10:24.097Z,4.90
2022-10-30T10:13:01.672Z,5.45
2022-10-30T10:15:39.923Z,4.10
2022-10-30T10:18:35.461Z,4.30
2022-10-30T10:21:07.050Z,4.35
2022-10-30T10:23:40.702Z,5.13
2022-10-30T10:26:54.581Z,4.78
2022-10-30T10:29:27.252Z,4.32
2022-10-30T10:32:09.879Z,4.47
2022-10-30T10:34:37.794Z,4.25
2022-10-30T10:37:25.402Z,4.80
2022-10-30T10:40:23.306Z,5.45
2022-10-30T10:45:49.235Z,4.45
2022-10-30T10:51:30.771Z,3.95
2022-10-30T10:54:04.853Z,3.92
2022-10-30T10:59:24.892Z,5.80
2022-10-30T11:23:02.914Z,4.47
2022-10-30T11:43:09.315Z,4.72
2022-10-30T11:45:50.537Z,4.78
2022-10-30T11:51:14.598Z,4.47
2022-10-30T12:02:22.468Z,3.53
2022-10-30T12:07:39.160Z,4.38
2022-10-30T12:36:14.969Z,4.97
2022-10-30T12:42:11.669Z,4.40
2022-10-30T12:51:25.244Z,4.75
2022-10-30T12:59:54.778Z,4.68
2022-10-30T13:02:51.121Z,4.80
2022-10-30T13:05:29.828Z,4.10
2022-10-30T13:14:16.482Z,5.30
2022-10-30T13:17:10.509Z,5.10
2022-10-30T13:55:13.862Z,4.30
2022-10-30T13:57:53.144Z,5.10
2022-10-30T14:09:36.999Z,4.18
2022-10-30T14:15:33.063Z,4.85
2022-10-30T14:26:07.432Z,3.95
2022-10-30T14:28:45.580Z,5.50
2022-10-30T14:31:19.037Z,3.15
2022-10-30T15:27:46.323Z,4.18
2022-10-30T15:36:09.539Z,5.70
2022-10-30T15:41:20.136Z,4.47
2022-10-30T15:49:25.856Z,4.47
2022-10-30T15:54:47.783Z,4.18
2022-10-30T16:03:06.266Z,7.00
2022-10-30T16:05:45.036Z,7.60
2022-10-30T16:08:17.691Z,7.45
2022-10-30T16:13:56.547Z,8.77
2022-10-30T16:16:35.700Z,8.23
2022-10-30T16:19:04.712Z,8.65
2022-10-30T16:21:35.135Z,7.88
2022-10-30T16:24:05.314Z,9.43
2022-10-30T16:26:34.458Z,9.82
2022-10-30T16:29:08.066Z,10.43
2022-10-30T16:31:36.973Z,8.52
2022-10-30T16:34:35.315Z,7.22
2022-10-30T16:37:18.875Z,7.40
2022-10-30T16:39:46.826Z,7.72
2022-10-30T16:42:30.982Z,9.45
2022-10-30T16:45:11.207Z,9.43
2022-10-30T16:47:47.715Z,11.25
2022-10-30T16:50:18.487Z,11.55
2022-10-30T16:52:46.252Z,11.68
2022-10-30T16:55:20.716Z,10.55
2022-10-30T16:57:57.097Z,9.15
2022-10-30T17:00:36.154Z,10.20
2022-10-30T17:03:24.891Z,9.43
2022-10-30T17:06:01.906Z,11.63
2022-10-30T17:08:43.651Z,11.57
2022-10-30T17:11:19.057Z,8.95
2022-10-30T17:13:57.547Z,7.07
2022-10-30T17:16:32.567Z,8.38
2022-10-30T17:19:01.271Z,7.50
2022-10-30T17:21:39.962Z,9.15
2022-10-30T17:24:19.290Z,8.00
2022-10-30T17:26:55.029Z,8.90
2022-10-30T17:29:54.117Z,9.70
2022-10-30T17:32:32.123Z,26.80
2022-10-30T17:35:02.303Z,58.80
2022-10-30T17:37:31.262Z,54.17
2022-10-30T17:40:08.092Z,39.60
2022-10-30T17:42:35.959Z,23.17
2022-10-30T17:45:06.976Z,17.42
2022-10-30T17:47:34.821Z,13.73
2022-10-30T17:50:05.534Z,9.88
2022-10-30T17:52:34.085Z,15.65
2022-10-30T17:55:08.783Z,13.15
2022-10-30T17:57:36.438Z,9.48
2022-10-30T18:00:04.611Z,8.35
2022-10-30T18:03:06.644Z,9.10
2022-10-30T18:05:41.004Z,7.75
2022-10-30T18:08:11.142Z,10.18
2022-10-30T18:10:42.464Z,9.20
2022-10-30T18:13:12.682Z,9.05
2022-10-30T18:15:43.230Z,7.78
2022-10-30T18:18:10.990Z,8.80
2022-10-30T18:20:46.740Z,7.78
2022-10-30T18:28:44.765Z,6.75
2022-10-30T18:31:13.254Z,6.22
2022-10-30T18:33:42.486Z,8.73
2022-10-30T18:36:18.803Z,7.80
2022-10-30T18:39:00.699Z,7.35
2022-10-30T18:41:34.202Z,7.50
2022-10-30T18:44:02.168Z,6.72
2022-10-30T18:46:31.552Z,7.03
2022-10-30T18:48:59.436Z,10.48
2022-10-30T18:51:30.568Z,7.60
2022-10-30T18:53:58.638Z,7.13
2022-10-30T18:56:43.594Z,7.50
2022-10-30T18:59:11.261Z,7.65
2022-10-30T19:01:43.619Z,7.20
2022-10-30T19:04:21.653Z,8.38
2022-10-30T19:06:52.369Z,7.05
2022-10-30T19:09:22.224Z,9.20
2022-10-30T19:11:49.777Z,9.20
2022-10-30T19:14:17.417Z,9.32
2022-10-30T19:16:47.551Z,8.68
2022-10-30T19:19:16.296Z,8.07
2022-10-30T19:21:43.829Z,8.90
2022-10-30T19:24:16.010Z,8.38
2022-10-30T19:26:53.507Z,9.63
2022-10-30T19:29:21.238Z,8.05
2022-10-30T19:31:49.190Z,10.05
2022-10-30T19:34:16.768Z,8.00
2022-10-30T19:36:44.331Z,8.25
2022-10-30T19:39:12.959Z,9.85
2022-10-30T19:44:23.743Z,14.05
2022-10-30T19:46:51.461Z,13.63
2022-10-30T19:49:25.025Z,11.05
2022-10-30T19:51:53.270Z,12.38
2022-10-30T19:54:21.680Z,12.57
2022-10-30T19:56:50.977Z,10.23
2022-10-30T19:59:18.674Z,11.80
2022-10-30T20:01:46.330Z,12.70
2022-10-30T20:04:14.232Z,11.48
2022-10-30T20:06:42.128Z,12.10
2022-10-30T20:09:11.537Z,15.30
2022-10-30T20:11:39.119Z,13.65
2022-10-30T20:14:06.683Z,12.23
2022-10-30T20:16:34.279Z,11.68
2022-10-30T20:19:01.929Z,10.13
2022-10-30T20:21:31.499Z,9.43
2022-10-30T20:23:59.090Z,9.32
2022-10-30T20:26:28.930Z,9.43
2022-10-30T20:28:56.651Z,10.48
2022-10-30T20:31:24.263Z,9.85
2022-10-30T20:33:51.890Z,12.32
2022-10-30T20:36:19.539Z,11.85
2022-10-30T20:38:48.389Z,9.45
2022-10-30T20:41:20.868Z,8.93
2022-10-30T20:43:50.104Z,8.77
2022-10-30T20:46:18.253Z,9.52
2022-10-30T20:48:46.181Z,8.05
2022-10-30T20:51:13.980Z,9.10
2022-10-30T20:53:41.561Z,8.73
2022-10-30T20:56:09.292Z,7.97
2022-10-30T20:58:37.131Z,7.93
2022-10-30T21:01:04.924Z,8.25
2022-10-30T21:03:32.642Z,8.25
2022-10-30T21:06:01.599Z,8.48
2022-10-30T21:08:32.284Z,8.48
2022-10-30T21:11:03.988Z,7.78
2022-10-30T21:13:31.556Z,8.07
2022-10-30T21:16:07.469Z,8.85
2022-10-30T21:18:35.498Z,7.63
2022-10-30T21:21:04.546Z,7.18
2022-10-30T21:23:32.149Z,7.20
2022-10-30T21:26:00.566Z,8.05
2022-10-30T21:28:28.237Z,7.47
2022-10-30T21:30:56.004Z,8.20
2022-10-30T21:33:23.762Z,7.32
2022-10-30T21:35:54.180Z,6.30
2022-10-30T21:38:22.156Z,6.78
2022-10-30T21:40:58.888Z,7.68
2022-10-30T21:43:26.513Z,6.90
2022-10-30T21:45:54.125Z,7.40
2022-10-30T21:48:21.868Z,6.72
2022-10-30T21:50:49.521Z,7.38
2022-10-30T21:53:17.025Z,8.85
2022-10-30T21:55:44.857Z,7.50
2022-10-30T21:58:12.534Z,8.05
2022-10-30T22:00:40.296Z,7.10
2022-10-30T22:03:11.040Z,7.25
2022-10-30T22:05:38.833Z,7.65
2022-10-30T22:08:06.855Z,6.97
2022-10-30T22:10:34.588Z,6.90
2022-10-30T22:13:02.682Z,6.80
2022-10-30T22:15:30.351Z,6.65
2022-10-30T22:17:59.313Z,8.10
2022-10-30T22:20:27.096Z,7.07
2022-10-30T22:22:55.242Z,6.60
2022-10-30T22:25:22.735Z,7.40
2022-10-30T22:27:50.508Z,7.70
2022-10-30T22:30:18.301Z,8.32
2022-10-30T22:32:46.624Z,8.30
2022-10-30T22:35:14.331Z,9.05
2022-10-30T22:37:41.959Z,8.15
2022-10-30T22:40:10.171Z,10.38
2022-10-30T22:42:37.882Z,9.45
2022-10-30T22:45:05.831Z,9.68
2022-10-30T22:47:33.453Z,8.43
2022-10-30T22:50:01.166Z,7.93
2022-10-30T22:52:28.827Z,8.40
2022-10-30T22:54:56.493Z,7.10
2022-10-30T22:57:23.978Z,7.75
2022-10-30T22:59:51.480Z,6.75
2022-10-30T23:02:18.990Z,6.63
2022-10-30T23:04:46.478Z,6.78
2022-10-30T23:07:16.852Z,7.63
2022-10-30T23:09:44.544Z,7.68
2022-10-30T23:12:12.043Z,7.55
2022-10-30T23:14:39.805Z,8.77
2022-10-30T23:17:07.305Z,7.75
2022-10-30T23:19:35.129Z,8.00
2022-10-30T23:22:02.862Z,7.30
2022-10-30T23:24:30.622Z,7.43
2022-10-30T23:26:58.347Z,7.95
2022-10-30T23:29:25.924Z,7.78
2022-10-30T23:31:53.546Z,6.50
2022-10-30T23:34:21.256Z,6.63
2022-10-30T23:36:48.940Z,6.63
2022-10-30T23:39:17.809Z,6.72
2022-10-30T23:41:45.576Z,6.70
2022-10-30T23:44:14.574Z,6.53
2022-10-30T23:46:42.460Z,6.53
2022-10-30T23:49:10.203Z,5.60
2022-10-30T23:51:38.533Z,8.05
2022-10-30T23:54:06.169Z,6.82
2022-10-30T23:56:33.794Z,6.38
2022-10-30T23:59:01.479Z,7.75
